sensor_id;sensor_type;location;lat;lon;timestamp;pressure;altitude;pressure_sealevel;temperature;humidity
70589;BME280;58152;49.202;18.744;2023-07-24T00:21:02;96993.38;;;22.00;50.82
70589;BME280;58152;49.202;18.744;2023-07-24T00:36:00;96984.03;;;21.87;51.46
70589;BME280;58152;49.202;18.744;2023-07-24T01:35:38;96952.38;;;21.37;53.16
70589;BME280;58152;49.202;18.744;2023-07-24T01:38:13;96949.84;;;21.25;52.38
70589;BME280;58152;49.202;18.744;2023-07-24T01:40:50;96944.66;;;21.24;52.58
70589;BME280;58152;49.202;18.744;2023-07-24T01:43:21;96943.00;;;21.23;52.41
70589;BME280;58152;49.202;18.744;2023-07-24T01:45:58;96941.31;;;21.22;52.66
70589;BME280;58152;49.202;18.744;2023-07-24T01:48:58;96932.75;;;21.18;52.52
70589;BME280;58152;49.202;18.744;2023-07-24T01:51:26;96947.19;;;21.25;52.56
70589;BME280;58152;49.202;18.744;2023-07-24T01:57:40;96948.75;;;21.18;53.68
70589;BME280;58152;49.202;18.744;2023-07-24T02:00:19;96933.47;;;21.11;53.57
70589;BME280;58152;49.202;18.744;2023-07-24T02:02:48;96939.22;;;21.16;53.27
70589;BME280;58152;49.202;18.744;2023-07-24T02:08:28;96938.13;;;21.09;53.27
70589;BME280;58152;49.202;18.744;2023-07-24T02:11:16;96936.56;;;21.06;53.50
70589;BME280;58152;49.202;18.744;2023-07-24T02:13:43;96919.34;;;21.00;53.57
70589;BME280;58152;49.202;18.744;2023-07-24T02:16:09;96931.81;;;21.00;53.46
70589;BME280;58152;49.202;18.744;2023-07-24T02:18:43;96909.38;;;20.93;53.92
70589;BME280;58152;49.202;18.744;2023-07-24T02:21:31;96929.16;;;21.00;53.80
70589;BME280;58152;49.202;18.744;2023-07-24T02:24:10;96929.03;;;20.92;53.83
70589;BME280;58152;49.202;18.744;2023-07-24T02:26:42;96921.63;;;20.86;53.88
70589;BME280;58152;49.202;18.744;2023-07-24T02:29:37;96927.34;;;20.91;54.91
70589;BME280;58152;49.202;18.744;2023-07-24T02:32:10;96929.47;;;20.87;54.18
70589;BME280;58152;49.202;18.744;2023-07-24T02:38:10;96930.31;;;20.88;54.31
70589;BME280;58152;49.202;18.744;2023-07-24T02:40:36;96927.63;;;20.88;54.42
70589;BME280;58152;49.202;18.744;2023-07-24T03:02:38;96901.03;;;20.68;54.75
70589;BME280;58152;49.202;18.744;2023-07-24T03:09:10;96918.84;;;20.68;55.64
70589;BME280;58152;49.202;18.744;2023-07-24T03:11:35;96918.84;;;20.58;54.59
70589;BME280;58152;49.202;18.744;2023-07-24T03:14:01;96909.03;;;20.59;54.75
70589;BME280;58152;49.202;18.744;2023-07-24T03:16:26;96917.16;;;20.57;55.03
70589;BME280;58152;49.202;18.744;2023-07-24T03:18:51;96913.13;;;20.53;55.17
70589;BME280;58152;49.202;18.744;2023-07-24T03:21:17;96911.56;;;20.50;55.14
70589;BME280;58152;49.202;18.744;2023-07-24T03:23:43;96919.56;;;20.50;55.19
70589;BME280;58152;49.202;18.744;2023-07-24T03:26:28;96919.56;;;20.50;56.42
70589;BME280;58152;49.202;18.744;2023-07-24T03:28:54;96932.72;;;20.52;55.41
70589;BME280;58152;49.202;18.744;2023-07-24T03:31:19;96930.03;;;20.42;55.72
70589;BME280;58152;49.202;18.744;2023-07-24T03:33:44;96922.19;;;20.41;55.96
70589;BME280;58152;49.202;18.744;2023-07-24T03:36:12;96925.84;;;20.40;56.00
70589;BME280;58152;49.202;18.744;2023-07-24T03:38:52;96914.63;;;20.36;56.65
70589;BME280;58152;49.202;18.744;2023-07-24T03:41:17;96921.91;;;20.34;56.02
70589;BME280;58152;49.202;18.744;2023-07-24T03:43:54;96921.38;;;20.40;56.85
70589;BME280;58152;49.202;18.744;2023-07-24T03:46:23;96920.09;;;20.35;56.31
70589;BME280;58152;49.202;18.744;2023-07-24T03:48:48;96920.78;;;20.37;56.23
70589;BME280;58152;49.202;18.744;2023-07-24T03:51:15;96929.38;;;20.30;56.28
70589;BME280;58152;49.202;18.744;2023-07-24T03:53:41;96922.47;;;20.28;56.14
70589;BME280;58152;49.202;18.744;2023-07-24T03:56:06;96943.50;;;20.31;56.38
70589;BME280;58152;49.202;18.744;2023-07-24T03:58:32;96929.63;;;20.27;56.49
70589;BME280;58152;49.202;18.744;2023-07-24T04:00:57;96936.22;;;20.23;56.64
70589;BME280;58152;49.202;18.744;2023-07-24T04:03:23;96935.53;;;20.21;56.76
70589;BME280;58152;49.202;18.744;2023-07-24T04:05:48;96932.03;;;20.21;56.74
70589;BME280;58152;49.202;18.744;2023-07-24T04:08:13;96944.47;;;20.20;56.85
70589;BME280;58152;49.202;18.744;2023-07-24T04:10:39;96949.69;;;20.22;56.96
70589;BME280;58152;49.202;18.744;2023-07-24T04:13:04;96945.47;;;20.19;57.05
70589;BME280;58152;49.202;18.744;2023-07-24T04:15:30;96943.34;;;20.13;57.11
70589;BME280;58152;49.202;18.744;2023-07-24T04:17:55;96946.88;;;20.14;57.22
70589;BME280;58152;49.202;18.744;2023-07-24T04:20:20;96939.28;;;20.09;57.26
70589;BME280;58152;49.202;18.744;2023-07-24T04:22:46;96952.03;;;20.15;57.29
70589;BME280;58152;49.202;18.744;2023-07-24T04:25:11;96945.03;;;20.14;57.54
70589;BME280;58152;49.202;18.744;2023-07-24T04:27:37;96932.84;;;20.12;57.41
70589;BME280;58152;49.202;18.744;2023-07-24T04:30:02;96938.03;;;20.13;57.33
70589;BME280;58152;49.202;18.744;2023-07-24T04:32:28;96937.88;;;20.15;57.55
70589;BME280;58152;49.202;18.744;2023-07-24T04:34:53;96940.84;;;20.12;57.77
70589;BME280;58152;49.202;18.744;2023-07-24T04:37:19;96945.19;;;20.13;57.58
70589;BME280;58152;49.202;18.744;2023-07-24T04:39:44;96942.53;;;20.13;57.78
70589;BME280;58152;49.202;18.744;2023-07-24T04:42:10;96952.03;;;20.15;58.11
70589;BME280;58152;49.202;18.744;2023-07-24T04:44:35;96937.19;;;20.13;57.72
70589;BME280;58152;49.202;18.744;2023-07-24T04:47:00;96933.69;;;20.12;57.75
70589;BME280;58152;49.202;18.744;2023-07-24T04:49:29;96939.56;;;20.16;58.19
70589;BME280;58152;49.202;18.744;2023-07-24T04:51:55;96934.81;;;20.10;58.16
70589;BME280;58152;49.202;18.744;2023-07-24T04:54:21;96933.53;;;20.14;58.09
70589;BME280;58152;49.202;18.744;2023-07-24T04:56:46;96934.22;;;20.16;58.22
70589;BME280;58152;49.202;18.744;2023-07-24T04:59:11;96933.13;;;20.18;58.19
70589;BME280;58152;49.202;18.744;2023-07-24T05:01:37;96935.78;;;20.18;58.38
70589;BME280;58152;49.202;18.744;2023-07-24T05:04:02;96946.88;;;20.23;58.67
70589;BME280;58152;49.202;18.744;2023-07-24T05:06:28;96947.00;;;20.22;58.58
70589;BME280;58152;49.202;18.744;2023-07-24T05:08:53;96940.56;;;20.24;58.36
70589;BME280;58152;49.202;18.744;2023-07-24T05:11:19;96955.69;;;20.24;58.60
70589;BME280;58152;49.202;18.744;2023-07-24T05:13:44;96945.88;;;20.24;58.67
70589;BME280;58152;49.202;18.744;2023-07-24T05:16:10;96957.81;;;20.30;59.16
70589;BME280;58152;49.202;18.744;2023-07-24T05:18:35;96951.50;;;20.31;59.32
70589;BME280;58152;49.202;18.744;2023-07-24T05:21:00;96937.19;;;20.32;59.45
70589;BME280;58152;49.202;18.744;2023-07-24T05:23:26;96937.34;;;20.30;59.62
70589;BME280;58152;49.202;18.744;2023-07-24T05:26:02;96944.09;;;20.35;59.95
70589;BME280;58152;49.202;18.744;2023-07-24T05:28:29;96930.47;;;20.28;59.66
70589;BME280;58152;49.202;18.744;2023-07-24T05:30:55;96941.53;;;20.33;59.67
70589;BME280;58152;49.202;18.744;2023-07-24T05:33:25;96937.19;;;20.32;59.94
70589;BME280;58152;49.202;18.744;2023-07-24T05:36:03;96937.19;;;20.32;60.03
70589;BME280;58152;49.202;18.744;2023-07-24T05:38:29;96941.13;;;20.38;60.11
70589;BME280;58152;49.202;18.744;2023-07-24T05:41:01;96938.47;;;20.38;60.00
70589;BME280;58152;49.202;18.744;2023-07-24T05:43:30;96943.50;;;20.41;60.09
70589;BME280;58152;49.202;18.744;2023-07-24T05:46:02;96945.19;;;20.42;60.09
70589;BME280;58152;49.202;18.744;2023-07-24T05:48:28;96945.91;;;20.44;60.47
70589;BME280;58152;49.202;18.744;2023-07-24T05:50:53;96953.75;;;20.45;60.27
70589;BME280;58152;49.202;18.744;2023-07-24T05:53:18;96946.47;;;20.47;60.68
70589;BME280;58152;49.202;18.744;2023-07-24T05:55:44;96948.19;;;20.48;60.36
70589;BME280;58152;49.202;18.744;2023-07-24T05:58:09;96932.19;;;20.48;60.62
70589;BME280;58152;49.202;18.744;2023-07-24T06:00:35;96941.56;;;20.52;60.44
70589;BME280;58152;49.202;18.744;2023-07-24T06:03:03;96935.28;;;20.53;60.88
70589;BME280;58152;49.202;18.744;2023-07-24T06:05:29;96933.16;;;20.57;61.20
70589;BME280;58152;49.202;18.744;2023-07-24T06:07:54;96930.34;;;20.59;61.13
70589;BME280;58152;49.202;18.744;2023-07-24T06:10:23;96938.91;;;20.62;61.18
70589;BME280;58152;49.202;18.744;2023-07-24T06:12:48;96945.50;;;20.68;61.22
70589;BME280;58152;49.202;18.744;2023-07-24T06:15:14;96942.69;;;20.69;61.34
70589;BME280;58152;49.202;18.744;2023-07-24T06:17:39;96949.69;;;20.70;61.13
70589;BME280;58152;49.202;18.744;2023-07-24T06:20:06;96945.06;;;20.72;61.69
70589;BME280;58152;49.202;18.744;2023-07-24T06:22:33;96937.63;;;20.76;61.73
70589;BME280;58152;49.202;18.744;2023-07-24T06:25:01;96942.09;;;20.75;62.06
70589;BME280;58152;49.202;18.744;2023-07-24T06:27:27;96937.91;;;20.83;61.92
70589;BME280;58152;49.202;18.744;2023-07-24T06:29:52;96939.88;;;20.80;62.04
70589;BME280;58152;49.202;18.744;2023-07-24T06:32:18;96946.72;;;20.83;62.06
70589;BME280;58152;49.202;18.744;2023-07-24T06:34:43;96944.91;;;20.84;61.86
70589;BME280;58152;49.202;18.744;2023-07-24T06:37:09;96955.13;;;20.88;62.32
70589;BME280;58152;49.202;18.744;2023-07-24T06:39:34;96948.41;;;20.94;62.65
70589;BME280;58152;49.202;18.744;2023-07-24T06:42:09;96940.53;;;20.92;62.56
70589;BME280;58152;49.202;18.744;2023-07-24T06:44:34;96931.84;;;20.90;62.48
70589;BME280;58152;49.202;18.744;2023-07-24T06:47:00;96930.59;;;20.94;62.49
70589;BME280;58152;49.202;18.744;2023-07-24T06:49:25;96931.13;;;20.98;62.43
70589;BME280;58152;49.202;18.744;2023-07-24T06:51:50;96927.19;;;21.02;62.70
70589;BME280;58152;49.202;18.744;2023-07-24T06:54:16;96936.56;;;21.06;62.92
70589;BME280;58152;49.202;18.744;2023-07-24T06:56:41;96922.69;;;21.02;62.96
70589;BME280;58152;49.202;18.744;2023-07-24T06:59:07;96928.56;;;21.06;63.23
70589;BME280;58152;49.202;18.744;2023-07-24T07:01:33;96923.25;;;21.06;63.09
70589;BME280;58152;49.202;18.744;2023-07-24T07:03:58;96911.28;;;21.10;64.03
70589;BME280;58152;49.202;18.744;2023-07-24T07:06:23;96912.28;;;21.09;64.22
70589;BME280;58152;49.202;18.744;2023-07-24T07:08:49;96903.44;;;21.09;64.48
70589;BME280;58152;49.202;18.744;2023-07-24T07:11:14;96901.19;;;21.14;64.28
70589;BME280;58152;49.202;18.744;2023-07-24T07:13:40;96894.84;;;21.15;64.19
70589;BME280;58152;49.202;18.744;2023-07-24T07:16:05;96894.69;;;21.16;64.16
70589;BME280;58152;49.202;18.744;2023-07-24T07:18:31;96882.22;;;21.17;64.43
70589;BME280;58152;49.202;18.744;2023-07-24T07:20:56;96874.22;;;21.17;64.28
70589;BME280;58152;49.202;18.744;2023-07-24T07:23:22;96867.59;;;21.21;64.45
70589;BME280;58152;49.202;18.744;2023-07-24T07:25:47;96870.53;;;21.27;64.53
70589;BME280;58152;49.202;18.744;2023-07-24T07:28:17;96860.84;;;21.26;64.71
70589;BME280;58152;49.202;18.744;2023-07-24T07:30:47;96867.56;;;21.30;64.77
70589;BME280;58152;49.202;18.744;2023-07-24T07:33:12;96861.09;;;21.33;64.89
70589;BME280;58152;49.202;18.744;2023-07-24T07:35:38;96867.84;;;21.37;64.66
70589;BME280;58152;49.202;18.744;2023-07-24T07:38:03;96870.06;;;21.42;64.72
70589;BME280;58152;49.202;18.744;2023-07-24T07:40:31;96864.94;;;21.48;64.69
70589;BME280;58152;49.202;18.744;2023-07-24T07:43:00;96870.44;;;21.47;64.83
70589;BME280;58152;49.202;18.744;2023-07-24T07:45:25;96880.38;;;21.54;64.39
70589;BME280;58152;49.202;18.744;2023-07-24T07:47:51;96883.72;;;21.56;64.58
70589;BME280;58152;49.202;18.744;2023-07-24T07:50:18;96882.28;;;21.62;64.33
70589;BME280;58152;49.202;18.744;2023-07-24T07:52:43;96884.84;;;21.64;64.05
70589;BME280;58152;49.202;18.744;2023-07-24T07:55:09;96872.16;;;21.66;63.84
70589;BME280;58152;49.202;18.744;2023-07-24T07:57:36;96872.41;;;21.72;63.67
70589;BME280;58152;49.202;18.744;2023-07-24T08:00:03;96863.50;;;21.81;63.29
70589;BME280;58152;49.202;18.744;2023-07-24T08:02:28;96860.06;;;21.89;62.75
70589;BME280;58152;49.202;18.744;2023-07-24T08:04:54;96852.59;;;21.93;62.38
70589;BME280;58152;49.202;18.744;2023-07-24T08:07:19;96851.75;;;21.92;62.52
70589;BME280;58152;49.202;18.744;2023-07-24T08:09:46;96842.75;;;21.93;62.81
70589;BME280;58152;49.202;18.744;2023-07-24T08:12:11;96844.81;;;21.99;62.98
70589;BME280;58152;49.202;18.744;2023-07-24T08:14:37;96845.94;;;21.97;62.77
70589;BME280;58152;49.202;18.744;2023-07-24T08:17:03;96846.34;;;22.02;63.12
70589;BME280;58152;49.202;18.744;2023-07-24T08:19:31;96832.13;;;22.01;63.11
70589;BME280;58152;49.202;18.744;2023-07-24T08:21:57;96842.19;;;22.07;62.97
70589;BME280;58152;49.202;18.744;2023-07-24T08:24:23;96834.06;;;22.09;62.01
70589;BME280;58152;49.202;18.744;2023-07-24T08:26:49;96821.94;;;22.15;61.32
70589;BME280;58152;49.202;18.744;2023-07-24T08:29:14;96835.50;;;22.21;61.30
70589;BME280;58152;49.202;18.744;2023-07-24T08:31:40;96820.00;;;22.25;61.12
70589;BME280;58152;49.202;18.744;2023-07-24T08:34:13;96834.13;;;22.35;60.17
70589;BME280;58152;49.202;18.744;2023-07-24T08:37:18;96828.63;;;22.37;59.34
70589;BME280;58152;49.202;18.744;2023-07-24T08:40:02;96827.34;;;22.41;59.16
70589;BME280;58152;49.202;18.744;2023-07-24T08:42:29;96820.97;;;22.42;58.89
70589;BME280;58152;49.202;18.744;2023-07-24T08:45:00;96817.00;;;22.46;58.73
70589;BME280;58152;49.202;18.744;2023-07-24T08:47:34;96823.09;;;22.56;58.50
70589;BME280;58152;49.202;18.744;2023-07-24T08:50:22;96815.97;;;22.65;57.63
70589;BME280;58152;49.202;18.744;2023-07-24T08:52:48;96809.13;;;22.70;56.80
70589;BME280;58152;49.202;18.744;2023-07-24T08:55:14;96791.09;;;22.72;55.88
70589;BME280;58152;49.202;18.744;2023-07-24T08:57:40;96803.84;;;22.78;55.45
70589;BME280;58152;49.202;18.744;2023-07-24T09:00:05;96817.56;;;22.83;55.01
70589;BME280;58152;49.202;18.744;2023-07-24T09:02:33;96806.88;;;22.83;54.73
70589;BME280;58152;49.202;18.744;2023-07-24T09:05:01;96809.47;;;22.93;54.57
70589;BME280;58152;49.202;18.744;2023-07-24T09:07:30;96815.00;;;23.00;54.33
70589;BME280;58152;49.202;18.744;2023-07-24T09:09:58;96808.81;;;22.99;54.12
70589;BME280;58152;49.202;18.744;2023-07-24T09:12:28;96804.03;;;23.11;53.08
70589;BME280;58152;49.202;18.744;2023-07-24T09:15:03;96797.19;;;23.17;51.18
70589;BME280;58152;49.202;18.744;2023-07-24T09:17:35;96791.34;;;23.21;52.10
70589;BME280;58152;49.202;18.744;2023-07-24T09:20:19;96795.06;;;23.28;51.68
70589;BME280;58152;49.202;18.744;2023-07-24T09:22:53;96784.38;;;23.28;52.13
70589;BME280;58152;49.202;18.744;2023-07-24T09:25:32;96782.88;;;23.34;51.95
70589;BME280;58152;49.202;18.744;2023-07-24T09:28:16;96782.22;;;23.40;51.81
70589;BME280;58152;49.202;18.744;2023-07-24T09:30:57;96777.53;;;23.42;51.86
70589;BME280;58152;49.202;18.744;2023-07-24T09:33:40;96766.19;;;23.48;51.92
70589;BME280;58152;49.202;18.744;2023-07-24T09:36:07;96762.34;;;23.51;51.60
70589;BME280;58152;49.202;18.744;2023-07-24T09:38:37;96755.81;;;23.53;51.71
70589;BME280;58152;49.202;18.744;2023-07-24T09:41:03;96748.28;;;23.57;51.65
70589;BME280;58152;49.202;18.744;2023-07-24T09:43:30;96747.13;;;23.59;51.60
70589;BME280;58152;49.202;18.744;2023-07-24T09:45:56;96751.84;;;23.66;51.71
70589;BME280;58152;49.202;18.744;2023-07-24T09:48:25;96741.16;;;23.66;51.63
70589;BME280;58152;49.202;18.744;2023-07-24T09:50:59;96732.28;;;23.65;51.71
70589;BME280;58152;49.202;18.744;2023-07-24T09:53:47;96737.13;;;23.70;52.96
70589;BME280;58152;49.202;18.744;2023-07-24T09:56:20;96727.75;;;23.74;53.69
70589;BME280;58152;49.202;18.744;2023-07-24T09:58:46;96723.56;;;23.79;52.76
70589;BME280;58152;49.202;18.744;2023-07-24T10:01:15;96716.06;;;23.83;52.74
70589;BME280;58152;49.202;18.744;2023-07-24T10:03:50;96715.38;;;23.89;52.66
70589;BME280;58152;49.202;18.744;2023-07-24T10:06:16;96725.06;;;23.98;52.61
70589;BME280;58152;49.202;18.744;2023-07-24T10:08:43;96721.06;;;24.02;53.02
70589;BME280;58152;49.202;18.744;2023-07-24T10:11:11;96716.88;;;24.08;51.73
70589;BME280;58152;49.202;18.744;2023-07-24T10:13:37;96721.38;;;24.16;51.42
70589;BME280;58152;49.202;18.744;2023-07-24T10:16:03;96703.28;;;24.18;51.07
70589;BME280;58152;49.202;18.744;2023-07-24T10:18:32;96702.75;;;24.30;50.75
70589;BME280;58152;49.202;18.744;2023-07-24T10:21:06;96692.22;;;24.37;50.31
70589;BME280;58152;49.202;18.744;2023-07-24T10:23:46;96685.47;;;24.49;51.19
70589;BME280;58152;49.202;18.744;2023-07-24T10:26:14;96670.41;;;24.56;51.28
70589;BME280;58152;49.202;18.744;2023-07-24T10:28:41;96676.03;;;24.70;50.82
70589;BME280;58152;49.202;18.744;2023-07-24T10:31:08;96676.25;;;24.91;50.13
70589;BME280;58152;49.202;18.744;2023-07-24T10:33:47;96679.69;;;25.16;48.65
70589;BME280;58152;49.202;18.744;2023-07-24T10:36:17;96675.88;;;25.33;48.68
70589;BME280;58152;49.202;18.744;2023-07-24T10:38:54;96670.88;;;25.53;48.05
70589;BME280;58152;49.202;18.744;2023-07-24T10:41:20;96680.81;;;25.76;47.60
70589;BME280;58152;49.202;18.744;2023-07-24T10:43:52;96672.53;;;26.00;46.72
70589;BME280;58152;49.202;18.744;2023-07-24T10:46:38;96678.31;;;26.27;46.32
70589;BME280;58152;49.202;18.744;2023-07-24T10:49:04;96672.47;;;26.38;46.71
70589;BME280;58152;49.202;18.744;2023-07-24T10:51:32;96660.34;;;26.57;45.82
70589;BME280;58152;49.202;18.744;2023-07-24T10:53:59;96654.16;;;26.71;45.96
70589;BME280;58152;49.202;18.744;2023-07-24T10:56:25;96660.13;;;26.88;45.57
70589;BME280;58152;49.202;18.744;2023-07-24T10:58:51;96644.34;;;27.00;45.63
70589;BME280;58152;49.202;18.744;2023-07-24T11:01:17;96632.59;;;27.07;45.29
70589;BME280;58152;49.202;18.744;2023-07-24T11:03:43;96640.81;;;27.14;45.88
70589;BME280;58152;49.202;18.744;2023-07-24T11:06:16;96642.56;;;27.22;43.34
70589;BME280;58152;49.202;18.744;2023-07-24T11:08:54;96651.25;;;27.24;40.93
70589;BME280;58152;49.202;18.744;2023-07-24T11:11:21;96648.50;;;27.17;42.20
70589;BME280;58152;49.202;18.744;2023-07-24T11:13:50;96640.06;;;27.05;43.33
70589;BME280;58152;49.202;18.744;2023-07-24T11:16:16;96662.72;;;26.96;43.11
70589;BME280;58152;49.202;18.744;2023-07-24T11:18:46;96636.22;;;26.78;45.61
70589;BME280;58152;49.202;18.744;2023-07-24T11:21:12;96663.41;;;26.69;44.34
70589;BME280;58152;49.202;18.744;2023-07-24T11:23:44;96648.31;;;26.68;43.91
70589;BME280;58152;49.202;18.744;2023-07-24T11:26:10;96654.16;;;26.71;43.96
70589;BME280;58152;49.202;18.744;2023-07-24T11:28:39;96643.19;;;26.73;44.15
70589;BME280;58152;49.202;18.744;2023-07-24T11:31:05;96637.72;;;26.81;44.00
70589;BME280;58152;49.202;18.744;2023-07-24T11:33:31;96636.22;;;26.78;44.50
70589;BME280;58152;49.202;18.744;2023-07-24T11:35:58;96628.81;;;26.80;44.86
70589;BME280;58152;49.202;18.744;2023-07-24T11:38:23;96618.69;;;26.82;44.71
70589;BME280;58152;49.202;18.744;2023-07-24T11:40:49;96620.72;;;26.80;45.02
70589;BME280;58152;49.202;18.744;2023-07-24T11:43:19;96607.66;;;26.77;44.80
70589;BME280;58152;49.202;18.744;2023-07-24T11:45:52;96611.16;;;26.78;45.73
70589;BME280;58152;49.202;18.744;2023-07-24T11:48:19;96616.34;;;26.79;45.52
70589;BME280;58152;49.202;18.744;2023-07-24T11:50:50;96612.19;;;26.77;45.66
70589;BME280;58152;49.202;18.744;2023-07-24T11:55:51;96586.38;;;26.82;45.07
70589;BME280;58152;49.202;18.744;2023-07-24T11:58:17;96593.06;;;26.86;45.41
70589;BME280;58152;49.202;18.744;2023-07-24T12:00:42;96577.47;;;26.82;45.48
70589;BME280;58152;49.202;18.744;2023-07-24T12:03:08;96565.22;;;26.79;45.79
70589;BME280;58152;49.202;18.744;2023-07-24T12:05:40;96573.50;;;26.78;46.69
70589;BME280;58152;49.202;18.744;2023-07-24T12:08:06;96564.34;;;26.72;45.80
70589;BME280;58152;49.202;18.744;2023-07-24T12:10:36;96560.69;;;26.80;45.57
70589;BME280;58152;49.202;18.744;2023-07-24T12:13:01;96552.31;;;26.90;45.06
70589;BME280;58152;49.202;18.744;2023-07-24T12:15:27;96546.38;;;27.16;44.80
70589;BME280;58152;49.202;18.744;2023-07-24T12:17:53;96531.88;;;27.38;44.15
70589;BME280;58152;49.202;18.744;2023-07-24T12:20:18;96548.38;;;27.78;44.39
70589;BME280;58152;49.202;18.744;2023-07-24T12:22:44;96541.31;;;28.05;42.80
70589;BME280;58152;49.202;18.744;2023-07-24T12:25:09;96531.59;;;28.17;42.86
70589;BME280;58152;49.202;18.744;2023-07-24T12:27:35;96530.50;;;28.40;41.72
70589;BME280;58152;49.202;18.744;2023-07-24T12:30:01;96521.31;;;28.34;41.48
70589;BME280;58152;49.202;18.744;2023-07-24T12:32:26;96508.75;;;28.54;41.19
70589;BME280;58152;49.202;18.744;2023-07-24T12:34:53;96514.00;;;28.76;39.31
70589;BME280;58152;49.202;18.744;2023-07-24T12:37:19;96508.72;;;29.02;39.46
70589;BME280;58152;49.202;18.744;2023-07-24T12:39:46;96490.41;;;29.04;39.45
70589;BME280;58152;49.202;18.744;2023-07-24T12:42:12;96496.06;;;29.09;38.73
70589;BME280;58152;49.202;18.744;2023-07-24T12:44:41;96491.06;;;29.13;38.23
70589;BME280;58152;49.202;18.744;2023-07-24T12:47:14;96492.53;;;29.16;37.70
70589;BME280;58152;49.202;18.744;2023-07-24T12:49:40;96481.31;;;29.19;38.11
70589;BME280;58152;49.202;18.744;2023-07-24T12:52:05;96475.06;;;29.18;38.93
70589;BME280;58152;49.202;18.744;2023-07-24T12:54:31;96486.09;;;29.23;38.33
70589;BME280;58152;49.202;18.744;2023-07-24T12:56:57;96471.94;;;29.21;37.66
70589;BME280;58152;49.202;18.744;2023-07-24T12:59:23;96484.84;;;29.19;37.82
70589;BME280;58152;49.202;18.744;2023-07-24T13:01:48;96464.03;;;29.13;38.08
70589;BME280;58152;49.202;18.744;2023-07-24T13:04:16;96464.47;;;29.17;37.83
70589;BME280;58152;49.202;18.744;2023-07-24T13:06:41;96455.34;;;29.11;37.42
70589;BME280;58152;49.202;18.744;2023-07-24T13:09:07;96463.66;;;29.16;37.79
70589;BME280;58152;49.202;18.744;2023-07-24T13:11:33;96455.31;;;29.04;36.75
70589;BME280;58152;49.202;18.744;2023-07-24T13:13:58;96459.06;;;29.03;37.34
70589;BME280;58152;49.202;18.744;2023-07-24T13:16:24;96442.66;;;28.98;36.85
70589;BME280;58152;49.202;18.744;2023-07-24T13:18:49;96452.84;;;28.96;37.35
70589;BME280;58152;49.202;18.744;2023-07-24T13:21:15;96438.06;;;28.92;37.07
70589;BME280;58152;49.202;18.744;2023-07-24T13:23:41;96438.69;;;28.94;36.73
70589;BME280;58152;49.202;18.744;2023-07-24T13:26:06;96438.53;;;28.96;36.69
70589;BME280;58152;49.202;18.744;2023-07-24T13:28:33;96456.97;;;28.99;36.57
70589;BME280;58152;49.202;18.744;2023-07-24T13:31:16;96426.47;;;29.05;34.53
70589;BME280;58152;49.202;18.744;2023-07-24T13:33:42;96432.47;;;29.13;36.09
70589;BME280;58152;49.202;18.744;2023-07-24T13:36:16;96428.97;;;29.20;35.57
70589;BME280;58152;49.202;18.744;2023-07-24T13:38:42;96409.81;;;29.34;36.09
70589;BME280;58152;49.202;18.744;2023-07-24T13:41:10;96396.25;;;29.68;35.26
70589;BME280;58152;49.202;18.744;2023-07-24T13:43:36;96397.47;;;29.85;35.46
70589;BME280;58152;49.202;18.744;2023-07-24T13:46:32;96386.00;;;29.90;32.89
70589;BME280;58152;49.202;18.744;2023-07-24T13:49:19;96388.72;;;29.90;33.68
70589;BME280;58152;49.202;18.744;2023-07-24T15:14:52;96212.47;;;30.56;33.65
70589;BME280;58152;49.202;18.744;2023-07-24T15:30:00;96215.44;;;30.29;34.00
70589;BME280;58152;49.202;18.744;2023-07-24T15:32:31;96220.19;;;30.34;34.31
70589;BME280;58152;49.202;18.744;2023-07-24T15:35:07;96219.78;;;30.30;34.24
70589;BME280;58152;49.202;18.744;2023-07-24T15:37:35;96219.63;;;30.25;34.58
70589;BME280;58152;49.202;18.744;2023-07-24T15:40:02;96202.84;;;30.17;34.58
70589;BME280;58152;49.202;18.744;2023-07-24T15:42:36;96203.44;;;30.19;34.67
70589;BME280;58152;49.202;18.744;2023-07-24T15:45:07;96200.97;;;30.17;34.82
70589;BME280;58152;49.202;18.744;2023-07-24T15:47:46;96211.78;;;30.17;34.34
70589;BME280;58152;49.202;18.744;2023-07-24T15:50:18;96205.78;;;30.08;34.46
70589;BME280;58152;49.202;18.744;2023-07-24T15:59:58;96196.53;;;29.91;35.54
70589;BME280;58152;49.202;18.744;2023-07-24T16:02:37;96202.97;;;29.97;35.85
70589;BME280;58152;49.202;18.744;2023-07-24T16:05:05;96191.97;;;29.92;35.86
70589;BME280;58152;49.202;18.744;2023-07-24T16:07:40;96188.22;;;29.93;36.22
70589;BME280;58152;49.202;18.744;2023-07-24T16:10:06;96177.63;;;29.91;36.74
70589;BME280;58152;49.202;18.744;2023-07-24T16:12:38;96180.38;;;29.84;36.38
70589;BME280;58152;49.202;18.744;2023-07-24T16:15:07;96182.03;;;29.85;36.50
70589;BME280;58152;49.202;18.744;2023-07-24T16:17:56;96185.63;;;29.79;36.20
70589;BME280;58152;49.202;18.744;2023-07-24T16:20:45;96202.88;;;29.78;37.09
70589;BME280;58152;49.202;18.744;2023-07-24T16:23:12;96181.28;;;29.72;36.56
70589;BME280;58152;49.202;18.744;2023-07-24T16:25:38;96193.97;;;29.71;36.86
70589;BME280;58152;49.202;18.744;2023-07-24T16:28:06;96191.28;;;29.71;36.52
70589;BME280;58152;49.202;18.744;2023-07-24T16:30:57;96166.16;;;29.64;36.57
70589;BME280;58152;49.202;18.744;2023-07-24T16:33:23;96155.56;;;29.62;36.59
70589;BME280;58152;49.202;18.744;2023-07-24T16:35:49;96138.53;;;29.62;36.47
70589;BME280;58152;49.202;18.744;2023-07-24T16:38:14;96134.63;;;29.58;36.54
70589;BME280;58152;49.202;18.744;2023-07-24T16:40:41;96126.06;;;29.54;36.66
70589;BME280;58152;49.202;18.744;2023-07-24T16:43:16;96138.13;;;29.58;36.88
70589;BME280;58152;49.202;18.744;2023-07-24T16:45:47;96107.63;;;29.51;36.59
70589;BME280;58152;49.202;18.744;2023-07-24T16:48:26;96115.69;;;29.58;36.70